Time;durP1;ratioP1;P1;durP2;ratioP2;P2;SDS_P1;SDS_P2;PMS_P1;PMS_P2;Temp;Humidity;BMP_temperature;BMP_pressure;BME280_temperature;BME280_humidity;BME280_pressure;Samples;Min_cycle;Max_cycle;Signal;HPM_P1;HPM_P2
2022/10/29 00:01:51;;;;;;;25.00;10.38;;;;;;;;;;5023642;28;20072;-72
2022/10/29 00:04:17;;;;;;;38.47;10.93;;;;;;;;;;5019204;28;20063;-72
2022/10/29 00:06:43;;;;;;;23.38;9.82;;;;;;;;;;5024941;28;20112;-71
2022/10/29 00:09:10;;;;;;;34.47;10.50;;;;;;;;;;5024633;28;20100;-71
2022/10/29 00:11:36;;;;;;;26.55;9.60;;;;;;;;;;5023825;28;20029;-71
2022/10/29 00:14:02;;;;;;;30.42;9.90;;;;;;;;;;5024703;28;20030;-71
2022/10/29 00:16:29;;;;;;;27.88;9.20;;;;;;;;;;5024972;28;20077;-71
2022/10/29 00:18:57;;;;;;;25.80;10.25;;;;;;;;;;5024888;28;20032;-72
2022/10/29 00:21:24;;;;;;;32.55;9.63;;;;;;;;;;5018712;28;20036;-72
2022/10/29 00:23:51;;;;;;;23.15;9.07;;;;;;;;;;5028778;28;20041;-72
2022/10/29 00:26:18;;;;;;;36.55;9.10;;;;;;;;;;5028526;28;20037;-71
2022/10/29 00:28:45;;;;;;;21.00;8.32;;;;;;;;;;5028571;28;20027;-71
2022/10/29 00:31:15;;;;;;;21.17;8.63;;;;;;;;;;5027969;28;20643;-72
2022/10/29 00:33:41;;;;;;;29.70;8.35;;;;;;;;;;5028655;28;20025;-72
2022/10/29 00:36:10;;;;;;;22.88;9.82;;;;;;;;;;5026742;28;20580;-74
2022/10/29 00:38:36;;;;;;;28.48;9.55;;;;;;;;;;5028554;28;20052;-72
2022/10/29 00:41:03;;;;;;;23.33;9.23;;;;;;;;;;5028211;28;20094;-72
2022/10/29 00:43:29;;;;;;;29.45;9.98;;;;;;;;;;5027209;28;20393;-72
2022/10/29 00:45:55;;;;;;;22.75;10.40;;;;;;;;;;5028347;28;20492;-71
2022/10/29 00:48:23;;;;;;;26.33;9.90;;;;;;;;;;5026379;28;20025;-72
2022/10/29 00:50:49;;;;;;;31.60;12.15;;;;;;;;;;5026656;28;20029;-72
2022/10/29 00:53:18;;;;;;;24.30;11.13;;;;;;;;;;5027962;28;20485;-72
2022/10/29 00:55:44;;;;;;;26.70;10.90;;;;;;;;;;5026581;28;20034;-72
2022/10/29 00:58:11;;;;;;;40.28;12.02;;;;;;;;;;5028185;28;20030;-72
2022/10/29 01:00:37;;;;;;;33.15;11.27;;;;;;;;;;5027934;28;20048;-72
2022/10/29 01:03:04;;;;;;;29.30;11.35;;;;;;;;;;5023184;28;20021;-72
2022/10/29 01:05:31;;;;;;;30.17;11.30;;;;;;;;;;5026413;28;20037;-72
2022/10/29 01:07:57;;;;;;;33.75;11.27;;;;;;;;;;5027671;28;20424;-72
2022/10/29 01:10:31;;;;;;;31.08;11.38;;;;;;;;;;5027920;28;20056;-73
2022/10/29 01:13:04;;;;;;;34.38;11.55;;;;;;;;;;5027078;28;20080;-72
2022/10/29 01:15:56;;;;;;;29.65;11.65;;;;;;;;;;5027748;28;20107;-72
2022/10/29 01:18:34;;;;;;;31.55;11.77;;;;;;;;;;5026447;28;20586;-72
2022/10/29 01:21:26;;;;;;;30.08;12.05;;;;;;;;;;5024585;28;20052;-72
2022/10/29 01:24:04;;;;;;;27.65;12.02;;;;;;;;;;5021637;28;20037;-71
2022/10/29 01:27:00;;;;;;;38.97;12.48;;;;;;;;;;5016322;28;20030;-72
2022/10/29 01:29:44;;;;;;;31.75;12.82;;;;;;;;;;5009842;28;20770;-72
2022/10/29 01:32:12;;;;;;;36.78;13.07;;;;;;;;;;5021571;28;20207;-72
2022/10/29 01:34:51;;;;;;;30.85;12.50;;;;;;;;;;5022402;28;20044;-72
2022/10/29 01:37:24;;;;;;;34.88;13.18;;;;;;;;;;5022379;28;20053;-72
2022/10/29 01:39:54;;;;;;;32.10;12.00;;;;;;;;;;5022828;28;20048;-71
2022/10/29 01:42:29;;;;;;;32.42;13.40;;;;;;;;;;5018176;28;20033;-72
2022/10/29 01:45:03;;;;;;;30.30;12.48;;;;;;;;;;5022209;28;20029;-71
2022/10/29 01:47:32;;;;;;;28.85;12.27;;;;;;;;;;5019887;28;20025;-72
2022/10/29 01:50:03;;;;;;;28.05;11.40;;;;;;;;;;5019055;28;20026;-72
2022/10/29 01:52:32;;;;;;;30.53;11.93;;;;;;;;;;5014855;28;20029;-71
2022/10/29 01:54:58;;;;;;;31.73;12.23;;;;;;;;;;5020429;28;20037;-72
2022/10/29 01:57:24;;;;;;;38.30;12.18;;;;;;;;;;5020281;28;20041;-72
2022/10/29 01:59:51;;;;;;;28.10;12.02;;;;;;;;;;5021447;28;20033;-72
2022/10/29 02:02:36;;;;;;;32.72;12.68;;;;;;;;;;5016856;28;20037;-72
2022/10/29 02:05:02;;;;;;;35.00;11.80;;;;;;;;;;5016061;28;20041;-71
2022/10/29 02:07:28;;;;;;;23.25;11.15;;;;;;;;;;5020578;28;20056;-71
2022/10/29 02:10:01;;;;;;;32.22;12.50;;;;;;;;;;5021769;28;20132;-72
2022/10/29 02:12:27;;;;;;;27.45;11.50;;;;;;;;;;5021711;28;20026;-72
2022/10/29 02:15:04;;;;;;;25.50;11.02;;;;;;;;;;5021396;28;20029;-71
2022/10/29 02:17:34;;;;;;;29.42;11.68;;;;;;;;;;5021381;28;20029;-71
2022/10/29 02:20:09;;;;;;;28.10;11.10;;;;;;;;;;5019959;28;20045;-72
2022/10/29 02:22:35;;;;;;;26.33;11.05;;;;;;;;;;5019817;28;20108;-72
2022/10/29 02:25:01;;;;;;;28.30;12.18;;;;;;;;;;5021099;28;20056;-72
2022/10/29 02:27:28;;;;;;;31.27;10.63;;;;;;;;;;5019888;28;20039;-72
2022/10/29 02:29:54;;;;;;;30.48;10.60;;;;;;;;;;5022154;28;20037;-71
2022/10/29 02:32:20;;;;;;;21.17;10.48;;;;;;;;;;5021124;28;20275;-72
2022/10/29 02:34:46;;;;;;;23.75;9.75;;;;;;;;;;5021464;28;20022;-72
2022/10/29 02:37:12;;;;;;;25.17;10.40;;;;;;;;;;5021283;28;20049;-72
2022/10/29 02:39:38;;;;;;;29.02;10.02;;;;;;;;;;5019586;28;20037;-72
2022/10/29 02:42:05;;;;;;;35.22;11.10;;;;;;;;;;5021447;28;20025;-71
2022/10/29 02:44:31;;;;;;;23.20;10.93;;;;;;;;;;5020752;28;20029;-72
2022/10/29 02:46:57;;;;;;;24.77;11.18;;;;;;;;;;5021605;28;20075;-72
2022/10/29 02:49:23;;;;;;;25.25;10.35;;;;;;;;;;5021057;28;20036;-72
2022/10/29 02:51:49;;;;;;;33.22;11.70;;;;;;;;;;5019634;28;20030;-73
2022/10/29 02:54:15;;;;;;;19.02;10.27;;;;;;;;;;5021618;28;20029;-72
2022/10/29 02:56:41;;;;;;;30.58;11.35;;;;;;;;;;5020867;28;20037;-72
2022/10/29 02:59:08;;;;;;;27.58;10.70;;;;;;;;;;5020919;28;20025;-72
2022/10/29 03:01:34;;;;;;;26.60;10.80;;;;;;;;;;5019266;28;20033;-73
2022/10/29 03:04:00;;;;;;;25.95;9.82;;;;;;;;;;5020459;28;20033;-73
2022/10/29 03:06:26;;;;;;;25.98;10.52;;;;;;;;;;5021102;28;20554;-71
2022/10/29 03:08:52;;;;;;;30.02;10.68;;;;;;;;;;5020861;28;20025;-73
2022/10/29 03:11:19;;;;;;;27.52;9.45;;;;;;;;;;5021230;28;20713;-72
2022/10/29 03:13:45;;;;;;;28.15;10.00;;;;;;;;;;5018980;28;20496;-71
2022/10/29 03:16:11;;;;;;;24.73;10.30;;;;;;;;;;5020584;28;20072;-73
2022/10/29 03:18:37;;;;;;;34.40;10.93;;;;;;;;;;5017352;28;20572;-72
2022/10/29 03:21:04;;;;;;;23.77;10.40;;;;;;;;;;5018481;28;20663;-72
2022/10/29 03:23:30;;;;;;;26.25;10.52;;;;;;;;;;5017252;28;20565;-73
2022/10/29 03:25:56;;;;;;;31.92;10.77;;;;;;;;;;5016511;28;20032;-72
2022/10/29 03:28:23;;;;;;;27.05;10.20;;;;;;;;;;5018950;28;20036;-74
2022/10/29 03:30:49;;;;;;;28.02;10.85;;;;;;;;;;5019002;28;20029;-71
2022/10/29 03:33:16;;;;;;;25.05;9.40;;;;;;;;;;5018619;28;20763;-70
2022/10/29 03:35:42;;;;;;;19.95;9.73;;;;;;;;;;5018056;28;20792;-70
2022/10/29 03:38:08;;;;;;;24.88;9.57;;;;;;;;;;5016315;28;20584;-71
2022/10/29 03:40:34;;;;;;;23.70;10.88;;;;;;;;;;5016664;28;20048;-72
2022/10/29 03:43:00;;;;;;;27.73;10.88;;;;;;;;;;5018078;28;20030;-72
2022/10/29 03:45:26;;;;;;;25.20;10.00;;;;;;;;;;5017912;28;20033;-72
2022/10/29 03:47:53;;;;;;;25.15;10.93;;;;;;;;;;5017896;28;20048;-71
2022/10/29 03:50:19;;;;;;;27.90;11.15;;;;;;;;;;5010006;28;20473;-72
2022/10/29 03:52:45;;;;;;;25.35;9.93;;;;;;;;;;5016844;28;20100;-72
2022/10/29 03:55:11;;;;;;;26.40;10.70;;;;;;;;;;5018795;28;20029;-72
2022/10/29 03:57:37;;;;;;;32.33;10.55;;;;;;;;;;5021374;28;20117;-72
2022/10/29 04:00:04;;;;;;;29.38;10.43;;;;;;;;;;5020403;28;20037;-71
2022/10/29 04:02:30;;;;;;;30.58;9.82;;;;;;;;;;5021637;28;20121;-72
2022/10/29 04:04:56;;;;;;;30.73;10.13;;;;;;;;;;5022214;28;20036;-71
2022/10/29 04:07:22;;;;;;;29.45;10.55;;;;;;;;;;5022016;28;20446;-71
2022/10/29 04:09:48;;;;;;;28.10;9.30;;;;;;;;;;5020266;28;20029;-71
2022/10/29 04:12:14;;;;;;;32.38;10.73;;;;;;;;;;5015965;28;20072;-72
2022/10/29 04:14:41;;;;;;;33.78;11.02;;;;;;;;;;5021482;28;20716;-72
2022/10/29 04:17:08;;;;;;;32.67;11.63;;;;;;;;;;5021944;28;20420;-71
2022/10/29 04:19:34;;;;;;;28.98;10.82;;;;;;;;;;5021989;28;20623;-71
2022/10/29 04:22:00;;;;;;;21.45;10.52;;;;;;;;;;5023684;28;20473;-72
2022/10/29 04:24:26;;;;;;;33.63;11.80;;;;;;;;;;5022425;28;20025;-72
2022/10/29 04:26:52;;;;;;;27.40;11.75;;;;;;;;;;5023602;28;20033;-74
2022/10/29 04:29:18;;;;;;;25.95;11.77;;;;;;;;;;5016223;28;20079;-71
2022/10/29 04:31:44;;;;;;;26.52;12.18;;;;;;;;;;5023956;28;20221;-71
2022/10/29 04:34:11;;;;;;;30.55;12.18;;;;;;;;;;5023132;28;20043;-71
2022/10/29 04:36:37;;;;;;;27.80;11.60;;;;;;;;;;5022169;28;20051;-72
2022/10/29 04:39:03;;;;;;;27.67;11.57;;;;;;;;;;5023645;28;20064;-72
2022/10/29 04:41:29;;;;;;;28.98;10.45;;;;;;;;;;5023872;28;20548;-72
2022/10/29 04:43:55;;;;;;;27.77;10.63;;;;;;;;;;5023495;28;20100;-71
2022/10/29 04:46:22;;;;;;;29.67;14.15;;;;;;;;;;5021494;28;20034;-71
2022/10/29 04:48:48;;;;;;;24.60;9.65;;;;;;;;;;5018140;28;20044;-71
2022/10/29 04:51:24;;;;;;;21.55;10.18;;;;;;;;;;5012669;28;20071;-72
2022/10/29 04:53:50;;;;;;;31.95;10.40;;;;;;;;;;5013541;28;20080;-72
2022/10/29 04:56:17;;;;;;;25.58;11.02;;;;;;;;;;5021156;28;20108;-72
2022/10/29 04:58:43;;;;;;;28.02;10.27;;;;;;;;;;5020856;28;20726;-72
2022/10/29 05:01:09;;;;;;;30.27;10.70;;;;;;;;;;5020822;28;20052;-72
2022/10/29 05:03:35;;;;;;;30.08;11.40;;;;;;;;;;5021004;28;20067;-72
2022/10/29 05:06:02;;;;;;;27.08;11.15;;;;;;;;;;5019460;28;20075;-72
2022/10/29 05:08:28;;;;;;;27.42;10.70;;;;;;;;;;5019672;28;20584;-72
2022/10/29 05:10:55;;;;;;;21.88;10.65;;;;;;;;;;5022010;28;20512;-73
2022/10/29 05:13:21;;;;;;;29.15;10.32;;;;;;;;;;5019196;28;20104;-72
2022/10/29 05:15:51;;;;;;;23.80;10.30;;;;;;;;;;5019762;28;20113;-73
2022/10/29 05:18:17;;;;;;;21.13;10.00;;;;;;;;;;5020389;28;20065;-74
2022/10/29 05:20:43;;;;;;;28.80;11.02;;;;;;;;;;5019851;28;20653;-73
2022/10/29 05:23:10;;;;;;;26.50;10.55;;;;;;;;;;5019202;28;20029;-74
2022/10/29 05:25:37;;;;;;;28.77;11.45;;;;;;;;;;5019147;28;20025;-72
2022/10/29 05:28:05;;;;;;;42.67;12.13;;;;;;;;;;5020049;28;20021;-72
2022/10/29 05:30:32;;;;;;;37.00;11.32;;;;;;;;;;5020129;28;20033;-72
2022/10/29 05:32:58;;;;;;;32.83;11.20;;;;;;;;;;5019588;28;20121;-74
2022/10/29 05:35:25;;;;;;;23.20;11.25;;;;;;;;;;5015094;28;20104;-73
2022/10/29 05:37:54;;;;;;;30.10;12.35;;;;;;;;;;5018861;28;20029;-74
2022/10/29 05:40:21;;;;;;;24.95;11.23;;;;;;;;;;5020192;28;20037;-73
2022/10/29 05:42:47;;;;;;;28.55;12.60;;;;;;;;;;5020164;28;20539;-73
2022/10/29 05:45:13;;;;;;;30.60;13.18;;;;;;;;;;5017901;28;20118;-73
2022/10/29 05:47:40;;;;;;;30.38;11.70;;;;;;;;;;5020096;28;20057;-73
2022/10/29 05:50:06;;;;;;;27.13;11.95;;;;;;;;;;5012388;28;20018;-73
2022/10/29 05:52:32;;;;;;;26.88;12.15;;;;;;;;;;5019156;28;20468;-74
2022/10/29 05:54:58;;;;;;;22.98;11.50;;;;;;;;;;5019252;28;20022;-73
2022/10/29 05:57:24;;;;;;;34.10;12.25;;;;;;;;;;5019176;28;20033;-73
2022/10/29 05:59:51;;;;;;;37.28;13.05;;;;;;;;;;5019245;28;20052;-73
2022/10/29 06:02:17;;;;;;;29.08;12.43;;;;;;;;;;5019766;28;20029;-72
2022/10/29 06:04:43;;;;;;;29.05;12.90;;;;;;;;;;5019205;28;20032;-73
2022/10/29 06:07:09;;;;;;;28.60;12.88;;;;;;;;;;5012510;28;20907;-73
2022/10/29 06:09:35;;;;;;;25.98;12.68;;;;;;;;;;5018837;28;20587;-72
2022/10/29 06:12:01;;;;;;;27.23;12.15;;;;;;;;;;5020107;28;20662;-74
2022/10/29 06:14:27;;;;;;;26.85;12.32;;;;;;;;;;5019763;28;20017;-72
2022/10/29 06:16:53;;;;;;;33.83;13.23;;;;;;;;;;5018993;28;20050;-73
2022/10/29 06:19:20;;;;;;;35.03;12.65;;;;;;;;;;5019296;28;20021;-72
2022/10/29 06:21:46;;;;;;;34.00;14.52;;;;;;;;;;5017503;28;20099;-72
2022/10/29 06:24:12;;;;;;;29.90;13.07;;;;;;;;;;5010039;28;20026;-74
2022/10/29 06:26:38;;;;;;;33.47;13.38;;;;;;;;;;5019613;28;20485;-73
2022/10/29 06:29:05;;;;;;;32.78;14.05;;;;;;;;;;5017828;28;20022;-71
2022/10/29 06:31:31;;;;;;;34.75;13.38;;;;;;;;;;5020344;28;20033;-72
2022/10/29 06:33:57;;;;;;;40.60;13.13;;;;;;;;;;5019723;28;20025;-71
2022/10/29 06:36:23;;;;;;;31.85;13.88;;;;;;;;;;5018064;28;20155;-71
2022/10/29 06:38:50;;;;;;;31.98;12.57;;;;;;;;;;5019279;28;20038;-72
2022/10/29 06:41:16;;;;;;;29.33;11.90;;;;;;;;;;5019271;28;20505;-71
2022/10/29 06:43:42;;;;;;;31.73;11.63;;;;;;;;;;5019713;28;20032;-72
2022/10/29 06:46:08;;;;;;;24.00;10.60;;;;;;;;;;5019065;28;20090;-72
2022/10/29 06:48:34;;;;;;;33.00;11.73;;;;;;;;;;5017708;28;20030;-72
2022/10/29 06:51:00;;;;;;;29.80;11.38;;;;;;;;;;5004083;28;20045;-71
2022/10/29 06:53:27;;;;;;;36.63;12.48;;;;;;;;;;5018582;28;20552;-72
2022/10/29 06:55:53;;;;;;;25.85;11.13;;;;;;;;;;5018880;28;20143;-72
2022/10/29 06:58:20;;;;;;;30.80;12.93;;;;;;;;;;5018613;28;20025;-73
2022/10/29 07:00:47;;;;;;;33.90;12.95;;;;;;;;;;5017236;28;20038;-72
2022/10/29 07:03:18;;;;;;;35.25;13.88;;;;;;;;;;5018795;28;20029;-71
2022/10/29 07:05:44;;;;;;;32.65;12.73;;;;;;;;;;5019074;28;20381;-71
2022/10/29 07:08:11;;;;;;;36.85;14.27;;;;;;;;;;5019627;28;20033;-73
2022/10/29 07:10:37;;;;;;;33.70;16.48;;;;;;;;;;5017831;28;20764;-73
2022/10/29 07:13:03;;;;;;;38.92;18.60;;;;;;;;;;5017375;28;20104;-72
2022/10/29 07:15:30;;;;;;;37.88;16.98;;;;;;;;;;5020733;28;20112;-73
2022/10/29 07:18:00;;;;;;;35.83;16.30;;;;;;;;;;5020019;28;20136;-73
2022/10/29 07:20:27;;;;;;;42.22;15.18;;;;;;;;;;5019590;28;20190;-72
2022/10/29 07:22:53;;;;;;;34.13;12.88;;;;;;;;;;5021600;28;20480;-72
2022/10/29 07:25:19;;;;;;;32.35;14.05;;;;;;;;;;5017890;28;20029;-72
2022/10/29 07:27:45;;;;;;;38.35;13.15;;;;;;;;;;5020907;28;20032;-72
2022/10/29 07:30:12;;;;;;;37.63;14.57;;;;;;;;;;5021227;28;20083;-73
2022/10/29 07:32:38;;;;;;;32.88;14.57;;;;;;;;;;5024815;28;20037;-72
2022/10/29 07:35:04;;;;;;;23.25;12.85;;;;;;;;;;5025224;28;20460;-72
2022/10/29 07:37:30;;;;;;;28.15;13.25;;;;;;;;;;5023658;28;20071;-71
2022/10/29 07:39:56;;;;;;;29.85;14.20;;;;;;;;;;5025180;28;20068;-72
2022/10/29 07:42:23;;;;;;;34.28;13.45;;;;;;;;;;5024569;28;20029;-73
2022/10/29 07:44:49;;;;;;;26.08;14.30;;;;;;;;;;5024998;28;20102;-72
2022/10/29 07:47:15;;;;;;;29.23;13.63;;;;;;;;;;5025031;28;20106;-73
2022/10/29 07:49:41;;;;;;;25.75;12.57;;;;;;;;;;5021190;28;20025;-73
2022/10/29 07:52:08;;;;;;;28.67;13.38;;;;;;;;;;5010749;28;20081;-73
2022/10/29 07:54:34;;;;;;;24.55;12.48;;;;;;;;;;5022302;28;20497;-72
2022/10/29 07:57:00;;;;;;;35.70;12.63;;;;;;;;;;5022523;28;20029;-76
2022/10/29 07:59:27;;;;;;;29.10;12.50;;;;;;;;;;5022746;28;20027;-73
2022/10/29 08:01:53;;;;;;;32.33;13.80;;;;;;;;;;5022212;28;20418;-72
2022/10/29 08:04:19;;;;;;;22.48;13.38;;;;;;;;;;5021035;28;20433;-72
2022/10/29 08:06:45;;;;;;;31.30;14.68;;;;;;;;;;5022478;28;20033;-73
2022/10/29 08:09:11;;;;;;;32.22;13.40;;;;;;;;;;5022302;28;20043;-71
2022/10/29 08:11:38;;;;;;;24.65;11.75;;;;;;;;;;5022192;28;20132;-72
2022/10/29 08:14:04;;;;;;;26.05;12.48;;;;;;;;;;5020784;28;20367;-75
2022/10/29 08:16:31;;;;;;;27.88;12.02;;;;;;;;;;5022502;28;20615;-72
2022/10/29 08:18:57;;;;;;;28.55;13.00;;;;;;;;;;5022144;28;20025;-73
2022/10/29 08:21:23;;;;;;;34.17;13.23;;;;;;;;;;5021956;28;20053;-72
2022/10/29 08:23:50;;;;;;;31.45;13.05;;;;;;;;;;5020772;28;20121;-72
2022/10/29 08:26:16;;;;;;;17.60;11.23;;;;;;;;;;5022083;28;20442;-72
2022/10/29 08:28:42;;;;;;;20.90;11.45;;;;;;;;;;5020349;28;20030;-75
2022/10/29 08:31:08;;;;;;;28.20;12.65;;;;;;;;;;5022061;28;20069;-72
2022/10/29 08:33:36;;;;;;;34.10;12.63;;;;;;;;;;5021778;28;20040;-72
2022/10/29 08:36:02;;;;;;;38.42;11.88;;;;;;;;;;5020123;28;20046;-74
2022/10/29 08:38:28;;;;;;;25.30;12.50;;;;;;;;;;5020333;28;20025;-73
2022/10/29 08:41:06;;;;;;;31.42;12.80;;;;;;;;;;5021469;28;20756;-73
2022/10/29 08:43:51;;;;;;;26.60;12.48;;;;;;;;;;5022037;28;20029;-74
2022/10/29 08:46:20;;;;;;;35.13;12.75;;;;;;;;;;5020851;28;20030;-72
2022/10/29 08:48:55;;;;;;;27.77;12.75;;;;;;;;;;5021449;28;20612;-72
2022/10/29 08:51:27;;;;;;;31.30;13.73;;;;;;;;;;5007822;28;20029;-73
2022/10/29 08:53:54;;;;;;;40.65;15.05;;;;;;;;;;5023682;28;20032;-74
2022/10/29 08:56:28;;;;;;;36.80;16.23;;;;;;;;;;5023971;28;20032;-73
2022/10/29 08:58:57;;;;;;;30.25;15.13;;;;;;;;;;5018431;28;20018;-73
2022/10/29 09:01:23;;;;;;;39.10;14.68;;;;;;;;;;5021582;28;20041;-73
2022/10/29 09:03:50;;;;;;;40.90;17.60;;;;;;;;;;5021876;28;20021;-77
2022/10/29 09:06:25;;;;;;;31.75;16.63;;;;;;;;;;5019385;28;20025;-73
2022/10/29 09:09:21;;;;;;;39.22;16.35;;;;;;;;;;4999999;28;20595;-75
2022/10/29 09:11:53;;;;;;;44.67;16.15;;;;;;;;;;5002368;28;20030;-74
2022/10/29 09:14:37;;;;;;;33.55;14.15;;;;;;;;;;5003382;28;20026;-74
2022/10/29 09:17:06;;;;;;;34.83;14.77;;;;;;;;;;5005747;28;20038;-73
2022/10/29 09:19:35;;;;;;;24.48;14.20;;;;;;;;;;5002055;28;20565;-72
2022/10/29 09:22:08;;;;;;;49.85;25.30;;;;;;;;;;5001463;28;20041;-75
2022/10/29 09:24:49;;;;;;;46.92;23.27;;;;;;;;;;5000984;28;20028;-73
2022/10/29 09:27:21;;;;;;;35.13;19.80;;;;;;;;;;5001357;28;20026;-73
2022/10/29 09:29:51;;;;;;;30.50;17.45;;;;;;;;;;5000919;28;20513;-73
2022/10/29 09:32:22;;;;;;;32.22;15.30;;;;;;;;;;4999874;28;20113;-73
2022/10/29 09:35:01;;;;;;;27.20;14.88;;;;;;;;;;5007295;28;20076;-74
2022/10/29 09:37:33;;;;;;;26.00;13.43;;;;;;;;;;4998899;28;20081;-73
2022/10/29 09:40:00;;;;;;;33.30;15.07;;;;;;;;;;5000607;28;20034;-73
2022/10/29 09:42:33;;;;;;;29.63;13.75;;;;;;;;;;5001142;28;20099;-73
2022/10/29 09:45:01;;;;;;;33.20;14.55;;;;;;;;;;5001182;28;20034;-74
2022/10/29 09:47:33;;;;;;;28.98;15.10;;;;;;;;;;4999240;28;20041;-75
2022/10/29 09:49:59;;;;;;;34.50;14.57;;;;;;;;;;5000635;28;20113;-74
2022/10/29 09:52:33;;;;;;;28.33;15.02;;;;;;;;;;5011441;28;20105;-74
2022/10/29 09:55:00;;;;;;;26.70;13.80;;;;;;;;;;5020083;28;20022;-75
2022/10/29 09:57:28;;;;;;;25.50;12.80;;;;;;;;;;5018856;28;20399;-74
2022/10/29 09:59:59;;;;;;;29.38;13.77;;;;;;;;;;5018927;28;20032;-73
2022/10/29 10:02:40;;;;;;;34.20;13.40;;;;;;;;;;5020521;28;20033;-73
2022/10/29 10:05:06;;;;;;;28.00;12.68;;;;;;;;;;5019695;28;20052;-73
2022/10/29 10:07:32;;;;;;;39.60;14.68;;;;;;;;;;5020261;28;20140;-74
2022/10/29 10:09:59;;;;;;;25.88;13.45;;;;;;;;;;5020565;28;20175;-73
2022/10/29 10:12:27;;;;;;;28.13;12.55;;;;;;;;;;5018116;28;20037;-75
2022/10/29 10:15:02;;;;;;;25.92;13.38;;;;;;;;;;5019772;28;20541;-74
2022/10/29 10:17:28;;;;;;;23.67;12.55;;;;;;;;;;5007048;28;20025;-73
2022/10/29 10:19:54;;;;;;;22.17;13.40;;;;;;;;;;5019462;28;20032;-74
2022/10/29 10:22:23;;;;;;;23.20;11.80;;;;;;;;;;5019784;28;20484;-74
2022/10/29 10:24:49;;;;;;;24.23;11.30;;;;;;;;;;5019772;28;20056;-74
2022/10/29 10:27:19;;;;;;;19.50;12.30;;;;;;;;;;5017385;28;20025;-74
2022/10/29 10:30:03;;;;;;;22.58;12.80;;;;;;;;;;5019304;28;20079;-74
2022/10/29 10:32:30;;;;;;;22.00;10.88;;;;;;;;;;5019676;28;20147;-74
2022/10/29 10:34:56;;;;;;;25.30;12.55;;;;;;;;;;5017656;28;20520;-74
2022/10/29 10:37:23;;;;;;;22.42;11.57;;;;;;;;;;5002904;28;20926;-76
2022/10/29 10:40:04;;;;;;;27.60;12.00;;;;;;;;;;5004115;28;20069;-74
2022/10/29 10:42:38;;;;;;;21.63;11.70;;;;;;;;;;5007146;28;20087;-75
2022/10/29 10:45:22;;;;;;;25.40;12.15;;;;;;;;;;5003890;28;20022;-74
2022/10/29 10:47:50;;;;;;;25.25;12.73;;;;;;;;;;5011765;28;20362;-73
2022/10/29 10:50:28;;;;;;;29.10;13.02;;;;;;;;;;5015809;28;20393;-73
2022/10/29 10:52:55;;;;;;;26.92;13.15;;;;;;;;;;5010691;28;20080;-73
2022/10/29 10:55:25;;;;;;;29.40;13.00;;;;;;;;;;5016265;28;20041;-73
2022/10/29 10:57:54;;;;;;;22.38;12.23;;;;;;;;;;5011995;28;20026;-73
2022/10/29 11:00:21;;;;;;;24.60;12.30;;;;;;;;;;5019354;28;20037;-73
2022/10/29 11:02:56;;;;;;;36.50;13.55;;;;;;;;;;5007876;28;20037;-73
2022/10/29 11:05:25;;;;;;;24.13;12.98;;;;;;;;;;5007552;28;20108;-74
2022/10/29 11:07:56;;;;;;;26.13;13.15;;;;;;;;;;5007462;28;20644;-73
2022/10/29 11:10:27;;;;;;;30.75;12.73;;;;;;;;;;5012772;28;20037;-74
2022/10/29 11:12:55;;;;;;;28.92;13.23;;;;;;;;;;5014041;28;20567;-73
2022/10/29 11:15:26;;;;;;;27.75;11.98;;;;;;;;;;5010377;28;20117;-72
2022/10/29 11:17:52;;;;;;;26.20;12.65;;;;;;;;;;5008256;28;20421;-73
2022/10/29 11:20:24;;;;;;;23.40;12.23;;;;;;;;;;5013788;28;20132;-73
2022/10/29 11:23:09;;;;;;;24.50;12.57;;;;;;;;;;5013746;28;20049;-72
2022/10/29 11:25:39;;;;;;;27.60;13.60;;;;;;;;;;5010843;28;20025;-73
2022/10/29 11:28:25;;;;;;;27.27;11.27;;;;;;;;;;5015636;28;20032;-72
2022/10/29 11:30:54;;;;;;;31.58;12.40;;;;;;;;;;5012440;28;20101;-73
2022/10/29 11:33:35;;;;;;;24.05;10.98;;;;;;;;;;5019041;28;20420;-74
2022/10/29 11:36:27;;;;;;;21.33;11.77;;;;;;;;;;5010652;28;20042;-73
2022/10/29 11:38:57;;;;;;;29.70;12.60;;;;;;;;;;5016752;28;20123;-72
2022/10/29 11:41:26;;;;;;;26.67;13.07;;;;;;;;;;5011583;28;20146;-73
2022/10/29 11:43:52;;;;;;;23.75;12.13;;;;;;;;;;5008747;28;20035;-72
2022/10/29 11:46:21;;;;;;;30.55;13.68;;;;;;;;;;5017677;28;20025;-74
2022/10/29 11:49:06;;;;;;;27.65;13.45;;;;;;;;;;5015061;28;20033;-72
2022/10/29 11:51:42;;;;;;;21.73;12.20;;;;;;;;;;5008138;28;20022;-74
2022/10/29 11:54:14;;;;;;;26.15;13.38;;;;;;;;;;5010449;28;20294;-72
2022/10/29 11:56:55;;;;;;;21.98;13.05;;;;;;;;;;5011912;28;20029;-73
2022/10/29 11:59:28;;;;;;;26.10;14.95;;;;;;;;;;5017402;28;20170;-73
2022/10/29 12:02:04;;;;;;;23.23;12.57;;;;;;;;;;5013446;28;20037;-73
2022/10/29 12:04:34;;;;;;;30.70;13.95;;;;;;;;;;5010113;28;20091;-73
2022/10/29 12:07:16;;;;;;;49.63;18.20;;;;;;;;;;5016349;28;20623;-73
2022/10/29 12:09:51;;;;;;;40.92;18.13;;;;;;;;;;5014953;28;20392;-74
2022/10/29 12:12:23;;;;;;;24.00;14.18;;;;;;;;;;5010649;28;20725;-74
2022/10/29 12:14:55;;;;;;;26.35;12.60;;;;;;;;;;5015716;28;20017;-76
2022/10/29 12:17:34;;;;;;;26.92;12.52;;;;;;;;;;5018201;28;20453;-77
2022/10/29 12:20:00;;;;;;;22.77;13.82;;;;;;;;;;5013686;28;20682;-75
2022/10/29 12:22:45;;;;;;;30.92;14.43;;;;;;;;;;5020218;28;20033;-72
2022/10/29 12:25:20;;;;;;;28.40;14.55;;;;;;;;;;5023468;28;20030;-73
2022/10/29 12:27:55;;;;;;;33.65;15.73;;;;;;;;;;5015684;28;20017;-73
2022/10/29 12:30:23;;;;;;;32.88;16.42;;;;;;;;;;5015416;28;20091;-75
2022/10/29 12:32:49;;;;;;;36.90;17.63;;;;;;;;;;5017096;28;20097;-74
2022/10/29 12:35:20;;;;;;;29.95;14.98;;;;;;;;;;5021255;28;20461;-75
2022/10/29 12:37:58;;;;;;;24.77;15.95;;;;;;;;;;5017971;28;20025;-73
2022/10/29 12:40:26;;;;;;;28.45;15.43;;;;;;;;;;5017002;28;20493;-76
2022/10/29 12:42:53;;;;;;;26.30;15.18;;;;;;;;;;5017199;28;20041;-76
2022/10/29 12:45:22;;;;;;;28.92;14.05;;;;;;;;;;5019097;28;20033;-75
2022/10/29 12:47:58;;;;;;;19.85;13.45;;;;;;;;;;5015346;28;20022;-74
2022/10/29 12:50:36;;;;;;;29.35;15.68;;;;;;;;;;5013976;28;20087;-72
2022/10/29 12:53:05;;;;;;;31.83;16.52;;;;;;;;;;5022292;28;20386;-72
2022/10/29 12:55:33;;;;;;;27.50;15.15;;;;;;;;;;5019904;28;20037;-74
2022/10/29 12:57:59;;;;;;;26.23;15.48;;;;;;;;;;5018895;28;20495;-74
2022/10/29 13:00:26;;;;;;;22.40;14.93;;;;;;;;;;5013551;28;20045;-76
2022/10/29 13:02:53;;;;;;;29.42;14.60;;;;;;;;;;5015622;28;20100;-73
2022/10/29 13:05:35;;;;;;;23.63;14.38;;;;;;;;;;5017365;28;20065;-79
2022/10/29 13:08:01;;;;;;;25.48;14.60;;;;;;;;;;5011846;28;20446;-75
2022/10/29 13:10:30;;;;;;;28.85;14.85;;;;;;;;;;5012202;28;20053;-74
2022/10/29 13:13:15;;;;;;;30.55;14.15;;;;;;;;;;5015947;28;20082;-74
2022/10/29 13:15:47;;;;;;;38.97;18.00;;;;;;;;;;5010920;28;20032;-75
2022/10/29 13:18:13;;;;;;;;;;;;;;;;;;5010545;28;20030;-71
2022/10/29 13:20:40;;;;;;;34.83;16.52;;;;;;;;;;5009159;28;20012;-72
2022/10/29 13:23:21;;;;;;;40.45;17.40;;;;;;;;;;5018154;28;20666;-72
2022/10/29 13:25:58;;;;;;;26.45;17.45;;;;;;;;;;5014420;28;20030;-72
2022/10/29 13:28:24;;;;;;;46.35;17.95;;;;;;;;;;5015924;28;20041;-71
2022/10/29 13:31:13;;;;;;;26.17;16.77;;;;;;;;;;5010531;28;20083;-71
2022/10/29 13:33:39;;;;;;;35.35;16.98;;;;;;;;;;5011310;28;20017;-71
2022/10/29 13:36:25;;;;;;;22.40;15.77;;;;;;;;;;5006583;28;20160;-71
2022/10/29 13:38:54;;;;;;;38.38;17.35;;;;;;;;;;5012104;28;20054;-71
2022/10/29 13:41:40;;;;;;;28.88;16.35;;;;;;;;;;5010571;28;20038;-72
2022/10/29 13:44:07;;;;;;;31.55;16.80;;;;;;;;;;5006504;28;20635;-71
2022/10/29 13:46:36;;;;;;;24.50;16.17;;;;;;;;;;5012221;28;20539;-71
2022/10/29 13:49:09;;;;;;;26.02;16.20;;;;;;;;;;5010139;28;20057;-74
2022/10/29 13:51:40;;;;;;;31.42;18.02;;;;;;;;;;5009004;28;20029;-72
2022/10/29 13:54:27;;;;;;;28.02;16.38;;;;;;;;;;5017840;28;20654;-72
2022/10/29 13:56:56;;;;;;;28.65;15.80;;;;;;;;;;5009533;28;20098;-72
2022/10/29 13:59:30;;;;;;;46.17;16.52;;;;;;;;;;5014805;28;20045;-72
2022/10/29 14:02:16;;;;;;;31.33;18.85;;;;;;;;;;5022059;28;20059;-73
2022/10/29 14:04:46;;;;;;;45.83;20.70;;;;;;;;;;5017415;28;20037;-71
2022/10/29 14:07:16;;;;;;;36.95;16.60;;;;;;;;;;5006217;28;20407;-73
2022/10/29 14:09:46;;;;;;;43.42;18.20;;;;;;;;;;5011508;28;20024;-73
2022/10/29 14:12:16;;;;;;;38.70;19.95;;;;;;;;;;5007358;28;20018;-73
2022/10/29 14:14:52;;;;;;;46.53;19.85;;;;;;;;;;5018032;28;20048;-73
2022/10/29 14:17:19;;;;;;;34.47;17.02;;;;;;;;;;5005660;28;20022;-73
2022/10/29 14:19:46;;;;;;;37.72;17.50;;;;;;;;;;5013478;28;20543;-72
2022/10/29 14:22:32;;;;;;;31.60;16.40;;;;;;;;;;5003001;28;20025;-72
2022/10/29 14:25:00;;;;;;;28.95;15.40;;;;;;;;;;5010887;28;20036;-72
2022/10/29 14:27:26;;;;;;;32.72;16.83;;;;;;;;;;5007881;28;20032;-73
2022/10/29 14:29:53;;;;;;;30.65;16.48;;;;;;;;;;5008410;28;20469;-72
2022/10/29 14:32:21;;;;;;;33.72;15.98;;;;;;;;;;5009047;28;20084;-72